Time,TemperatureF,DewpointF,PressureIn,WindDirection,WindDirectionDegrees,WindSpeedMPH,WindSpeedGustMPH,Humidity,HourlyPrecipIn,Conditions,Clouds,dailyrainin,SoftwareType,DateUTC
2013-09-18 00:11:00,59.3,55.0,30.22,East,91,0.0,1.0,85,0.00,,,0.00,weatherlink.com 1.10,2013-09-18 04:11:00,
2013-09-18 00:26:00,59.2,55.0,30.21,WNW,298,0.0,2.0,85,0.00,,,0.00,weatherlink.com 1.10,2013-09-18 04:26:00,
2013-09-18 00:41:00,59.4,55.0,30.21,SSW,194,0.0,4.0,84,0.00,,,0.00,weatherlink.com 1.10,2013-09-18 04:41:00,
2013-09-18 00:56:00,59.5,54.0,30.20,SE,141,1.0,3.0,83,0.00,,,0.00,weatherlink.com 1.10,2013-09-18 04:56:00,
2013-09-18 01:11:00,59.8,54.0,30.20,WSW,249,0.0,2.0,82,0.00,,,0.00,weatherlink.com 1.10,2013-09-18 05:11:00,
2013-09-18 01:26:00,59.8,54.0,30.20,East,82,2.0,5.0,82,0.00,,,0.00,weatherlink.com 1.10,2013-09-18 05:26:00,
2013-09-18 01:41:00,59.9,54.0,30.21,NE,35,0.0,2.0,82,0.00,,,0.00,weatherlink.com 1.10,2013-09-18 05:41:00,
2013-09-18 01:56:00,59.7,54.0,30.21,ESE,123,0.0,3.0,82,0.00,,,0.00,weatherlink.com 1.10,2013-09-18 05:56:00,
2013-09-18 02:11:00,59.7,54.0,30.21,NE,35,2.0,3.0,82,0.00,,,0.00,weatherlink.com 1.10,2013-09-18 06:11:00,
2013-09-18 02:26:00,59.7,54.0,30.21,North,354,0.0,3.0,81,0.00,,,0.00,weatherlink.com 1.10,2013-09-18 06:26:00,
2013-09-18 02:41:00,59.7,54.0,30.20,NW,317,0.0,2.0,81,0.00,,,0.00,weatherlink.com 1.10,2013-09-18 06:41:00,
2013-09-18 02:56:00,59.7,54.0,30.20,NE,52,0.0,3.0,80,0.00,,,0.00,weatherlink.com 1.10,2013-09-18 06:56:00,
2013-09-18 03:11:00,59.4,54.0,30.20,North,354,0.0,3.0,81,0.00,,,0.00,weatherlink.com 1.10,2013-09-18 07:11:00,
2013-09-18 03:26:00,59.5,53.0,30.20,NW,312,0.0,3.0,80,0.00,,,0.00,weatherlink.com 1.10,2013-09-18 07:26:00,
2013-09-18 03:41:00,59.4,53.0,30.20,NNW,330,0.0,2.0,79,0.00,,,0.00,weatherlink.com 1.10,2013-09-18 07:41:00,
2013-09-18 03:56:00,59.3,53.0,30.20,East,87,0.0,3.0,79,0.00,,,0.00,weatherlink.com 1.10,2013-09-18 07:56:00,
2013-09-18 04:11:00,59.1,53.0,30.19,NW,325,0.0,2.0,79,0.00,,,0.00,weatherlink.com 1.10,2013-09-18 08:11:00,
2013-09-18 04:26:00,58.7,53.0,30.20,NW,308,0.0,1.0,80,0.00,,,0.00,weatherlink.com 1.10,2013-09-18 08:26:00,
2013-09-18 04:41:00,58.6,52.0,30.20,NW,308,0.0,0.0,80,0.00,,,0.00,weatherlink.com 1.10,2013-09-18 08:41:00,
2013-09-18 04:56:00,58.2,53.0,30.19,NW,308,0.0,1.0,82,0.00,,,0.00,weatherlink.com 1.10,2013-09-18 08:56:00,
2013-09-18 05:11:00,57.2,52.0,30.19,NW,308,0.0,1.0,84,0.00,,,0.00,weatherlink.com 1.10,2013-09-18 09:11:00,
2013-09-18 05:26:00,57.0,53.0,30.19,WNW,288,0.0,2.0,85,0.00,,,0.00,weatherlink.com 1.10,2013-09-18 09:26:00,
2013-09-18 05:41:00,57.3,53.0,30.20,WNW,295,1.0,2.0,85,0.00,,,0.00,weatherlink.com 1.10,2013-09-18 09:41:00,
2013-09-18 05:56:00,57.6,53.0,30.20,ESE,103,0.0,1.0,84,0.00,,,0.00,weatherlink.com 1.10,2013-09-18 09:56:00,
2013-09-18 06:11:00,57.4,53.0,30.20,NW,318,0.0,2.0,84,0.00,,,0.00,weatherlink.com 1.10,2013-09-18 10:11:00,
2013-09-18 06:26:00,57.3,53.0,30.21,NE,47,2.0,3.0,84,0.00,,,0.00,weatherlink.com 1.10,2013-09-18 10:26:00,
2013-09-18 06:41:00,57.3,52.0,30.21,SW,228,0.0,2.0,82,0.00,,,0.00,weatherlink.com 1.10,2013-09-18 10:41:00,
2013-09-18 06:56:00,57.1,52.0,30.21,NW,321,0.0,2.0,82,0.00,,,0.00,weatherlink.com 1.10,2013-09-18 10:56:00,
2013-09-18 07:11:00,56.6,52.0,30.21,NE,35,1.0,2.0,84,0.00,,,0.00,weatherlink.com 1.10,2013-09-18 11:11:00,
2013-09-18 07:27:00,56.4,52.0,30.22,ESE,109,0.0,2.0,84,0.00,,,0.00,weatherlink.com 1.10,2013-09-18 11:27:00,
2013-09-18 07:42:00,56.4,52.0,30.22,WNW,288,0.0,2.0,85,0.00,,,0.00,weatherlink.com 1.10,2013-09-18 11:42:00,
2013-09-18 07:57:00,56.0,52.0,30.23,West,281,1.0,2.0,86,0.00,,,0.00,weatherlink.com 1.10,2013-09-18 11:57:00,
2013-09-18 08:12:00,55.9,52.0,30.23,West,280,0.0,1.0,87,0.00,,,0.00,weatherlink.com 1.10,2013-09-18 12:12:00,
2013-09-18 08:27:00,56.1,52.0,30.23,WNW,303,0.0,2.0,87,0.00,,,0.00,weatherlink.com 1.10,2013-09-18 12:27:00,
2013-09-18 08:42:00,57.2,53.0,30.23,South,187,0.0,1.0,85,0.00,,,0.00,weatherlink.com 1.10,2013-09-18 12:42:00,
2013-09-18 08:57:00,58.2,53.0,30.23,SSW,198,0.0,2.0,84,0.00,,,0.00,weatherlink.com 1.10,2013-09-18 12:57:00,
2013-09-18 09:12:00,59.4,54.0,30.23,North,358,0.0,2.0,82,0.00,,,0.00,weatherlink.com 1.10,2013-09-18 13:12:00,
2013-09-18 09:27:00,59.1,54.0,30.23,NE,54,0.0,1.0,83,0.00,,,0.00,weatherlink.com 1.10,2013-09-18 13:27:00,
2013-09-18 09:42:00,59.0,54.0,30.23,ESE,108,0.0,2.0,83,0.00,,,0.00,weatherlink.com 1.10,2013-09-18 13:42:00,
2013-09-18 10:12:00,58.7,54.0,30.24,ENE,75,1.0,4.0,85,0.00,,,0.00,weatherlink.com 1.10,2013-09-18 14:12:00,
2013-09-18 10:27:00,58.9,55.0,30.24,ENE,57,3.0,3.0,86,0.00,,,0.00,weatherlink.com 1.10,2013-09-18 14:27:00,
2013-09-18 10:42:00,59.6,55.0,30.25,East,87,1.0,4.0,84,0.00,,,0.00,weatherlink.com 1.10,2013-09-18 14:42:00,
2013-09-18 10:57:00,60.3,55.0,30.25,East,82,0.0,4.0,83,0.00,,,0.00,weatherlink.com 1.10,2013-09-18 14:57:00,
2013-09-18 11:12:00,60.9,55.0,30.25,NE,35,2.0,3.0,81,0.00,,,0.00,weatherlink.com 1.10,2013-09-18 15:12:00,
2013-09-18 11:27:00,59.9,55.0,30.25,ESE,103,0.0,2.0,84,0.00,,,0.00,weatherlink.com 1.10,2013-09-18 15:27:00,
2013-09-18 11:42:00,60.1,56.0,30.25,East,91,1.0,2.0,85,0.00,,,0.00,weatherlink.com 1.10,2013-09-18 15:42:00,
2013-09-18 11:57:00,60.7,56.0,30.24,East,96,0.0,3.0,84,0.00,,,0.00,weatherlink.com 1.10,2013-09-18 15:57:00,
2013-09-18 12:12:00,60.9,56.0,30.23,NE,41,0.0,2.0,84,0.00,,,0.00,weatherlink.com 1.10,2013-09-18 16:12:00,
2013-09-18 12:27:00,60.5,56.0,30.23,NE,50,1.0,2.0,85,0.00,,,0.00,weatherlink.com 1.10,2013-09-18 16:27:00,
2013-09-18 12:57:00,62.6,57.0,30.23,East,89,1.0,2.0,83,0.00,,,0.00,weatherlink.com 1.10,2013-09-18 16:57:00,
2013-09-18 13:12:00,63.6,58.0,30.23,NE,47,0.0,2.0,81,0.00,,,0.00,weatherlink.com 1.10,2013-09-18 17:12:00,
2013-09-18 13:27:00,63.9,58.0,30.23,ENE,77,4.0,6.0,81,0.00,,,0.00,weatherlink.com 1.10,2013-09-18 17:27:00,
2013-09-18 13:42:00,63.6,57.0,30.23,ENE,72,0.0,4.0,79,0.00,,,0.00,weatherlink.com 1.10,2013-09-18 17:42:00,
2013-09-18 13:57:00,62.5,57.0,30.22,WSW,246,1.0,3.0,83,0.00,,,0.00,weatherlink.com 1.10,2013-09-18 17:57:00,
2013-09-18 14:12:00,62.3,57.0,30.22,East,87,2.0,2.0,84,0.00,,,0.00,weatherlink.com 1.10,2013-09-18 18:12:00,
2013-09-18 14:27:00,62.3,58.0,30.22,ENE,63,0.0,3.0,85,0.00,,,0.00,weatherlink.com 1.10,2013-09-18 18:27:00,
2013-09-18 14:42:00,63.1,58.0,30.22,NNE,30,0.0,1.0,84,0.00,,,0.00,weatherlink.com 1.10,2013-09-18 18:42:00,
2013-09-18 14:57:00,62.9,58.0,30.21,East,82,0.0,2.0,83,0.00,,,0.00,weatherlink.com 1.10,2013-09-18 18:57:00,
2013-09-18 15:12:00,63.3,58.0,30.20,East,85,0.0,3.0,83,0.00,,,0.00,weatherlink.com 1.10,2013-09-18 19:12:00,
2013-09-18 15:27:00,63.1,58.0,30.20,NE,55,2.0,2.0,84,0.00,,,0.00,weatherlink.com 1.10,2013-09-18 19:27:00,
2013-09-18 15:42:00,63.0,58.0,30.19,ENE,78,1.0,3.0,84,0.00,,,0.00,weatherlink.com 1.10,2013-09-18 19:42:00,
2013-09-18 15:57:00,62.9,59.0,30.19,NE,50,0.0,2.0,86,0.00,,,0.00,weatherlink.com 1.10,2013-09-18 19:57:00,
2013-09-18 16:12:00,62.9,58.0,30.18,North,352,0.0,2.0,85,0.00,,,0.00,weatherlink.com 1.10,2013-09-18 20:12:00,
2013-09-18 16:27:00,63.2,59.0,30.18,NNW,333,0.0,0.0,85,0.00,,,0.00,weatherlink.com 1.10,2013-09-18 20:27:00,
2013-09-18 16:42:00,63.1,59.0,30.18,East,80,0.0,2.0,85,0.00,,,0.00,weatherlink.com 1.10,2013-09-18 20:42:00,
2013-09-18 16:57:00,63.1,59.0,30.18,ENE,60,1.0,2.0,85,0.00,,,0.00,weatherlink.com 1.10,2013-09-18 20:57:00,
2013-09-18 17:12:00,62.8,59.0,30.18,ENE,65,0.0,2.0,86,0.00,,,0.00,weatherlink.com 1.10,2013-09-18 21:12:00,
2013-09-18 17:27:00,62.4,59.0,30.17,NE,41,0.0,1.0,87,0.00,,,0.00,weatherlink.com 1.10,2013-09-18 21:27:00,
2013-09-18 17:42:00,62.4,58.0,30.17,ENE,64,0.0,1.0,86,0.00,,,0.00,weatherlink.com 1.10,2013-09-18 21:42:00,
2013-09-18 17:57:00,62.7,59.0,30.17,ENE,58,0.0,0.0,87,0.00,,,0.00,weatherlink.com 1.10,2013-09-18 21:57:00,
2013-09-18 18:12:00,62.4,59.0,30.17,East,81,0.0,1.0,88,0.00,,,0.00,weatherlink.com 1.10,2013-09-18 22:12:00,
2013-09-18 18:27:00,62.1,59.0,30.17,ENE,75,0.0,1.0,88,0.00,,,0.00,weatherlink.com 1.10,2013-09-18 22:27:00,
2013-09-18 18:42:00,61.5,59.0,30.16,ENE,76,0.0,0.0,90,0.00,,,0.00,weatherlink.com 1.10,2013-09-18 22:42:00,
2013-09-18 18:57:00,60.9,58.0,30.17,ENE,76,0.0,0.0,91,0.00,,,0.00,weatherlink.com 1.10,2013-09-18 22:57:00,
2013-09-18 19:12:00,60.3,58.0,30.16,ENE,77,0.0,0.0,92,0.00,,,0.00,weatherlink.com 1.10,2013-09-18 23:12:00,
2013-09-18 19:27:00,59.6,58.0,30.16,ENE,75,0.0,0.0,93,0.00,,,0.00,weatherlink.com 1.10,2013-09-18 23:27:00,
2013-09-18 19:42:00,58.9,57.0,30.16,NNW,338,0.0,0.0,94,0.00,,,0.00,weatherlink.com 1.10,2013-09-18 23:42:00,
2013-09-18 19:57:00,58.3,57.0,30.16,WNW,299,0.0,1.0,94,0.00,,,0.00,weatherlink.com 1.10,2013-09-18 23:57:00,
2013-09-18 20:12:00,57.8,56.0,30.16,WNW,300,0.0,1.0,95,0.00,,,0.00,weatherlink.com 1.10,2013-09-19 00:12:00,
2013-09-18 20:27:00,57.4,56.0,30.17,WNW,299,0.0,1.0,95,0.00,,,0.00,weatherlink.com 1.10,2013-09-19 00:27:00,
2013-09-18 20:42:00,57.1,56.0,30.18,WNW,300,0.0,1.0,95,0.00,,,0.00,weatherlink.com 1.10,2013-09-19 00:42:00,
2013-09-18 20:57:00,57.0,56.0,30.18,WNW,300,0.0,1.0,95,0.00,,,0.00,weatherlink.com 1.10,2013-09-19 00:57:00,
2013-09-18 21:13:00,56.8,56.0,30.18,WNW,299,0.0,0.0,96,0.00,,,0.00,weatherlink.com 1.10,2013-09-19 01:13:00,
2013-09-18 21:28:00,56.7,56.0,30.19,WNW,300,0.0,0.0,96,0.00,,,0.00,weatherlink.com 1.10,2013-09-19 01:28:00,
2013-09-18 21:43:00,56.6,56.0,30.19,WNW,294,0.0,0.0,96,0.00,,,0.00,weatherlink.com 1.10,2013-09-19 01:43:00,
2013-09-18 21:58:00,56.6,56.0,30.19,WNW,293,0.0,1.0,96,0.00,,,0.00,weatherlink.com 1.10,2013-09-19 01:58:00,
2013-09-18 22:13:00,56.5,55.0,30.19,WNW,294,1.0,1.0,96,0.00,,,0.00,weatherlink.com 1.10,2013-09-19 02:13:00,
2013-09-18 22:28:00,56.5,55.0,30.19,WNW,294,0.0,1.0,96,0.00,,,0.00,weatherlink.com 1.10,2013-09-19 02:28:00,
2013-09-18 22:43:00,56.5,55.0,30.19,WNW,289,0.0,2.0,96,0.00,,,0.00,weatherlink.com 1.10,2013-09-19 02:43:00,
2013-09-18 22:58:00,56.6,56.0,30.19,WNW,289,0.0,2.0,96,0.00,,,0.00,weatherlink.com 1.10,2013-09-19 02:58:00,
2013-09-18 23:13:00,56.6,56.0,30.20,WNW,290,1.0,1.0,96,0.00,,,0.00,weatherlink.com 1.10,2013-09-19 03:13:00,
2013-09-18 23:28:00,56.4,55.0,30.19,WNW,290,0.0,1.0,96,0.00,,,0.00,weatherlink.com 1.10,2013-09-19 03:28:00,
2013-09-18 23:43:00,56.3,55.0,30.19,WNW,289,1.0,2.0,96,0.00,,,0.00,weatherlink.com 1.10,2013-09-19 03:43:00,
2013-09-18 23:58:00,56.1,55.0,30.20,WNW,283,0.0,1.0,96,0.00,,,0.00,weatherlink.com 1.10,2013-09-19 03:58:00,